Impacts TAF Board INFO
FOR SITUATIONAL AWARENESS. NOT TO BE USED FOR FLIGHT PLANNING PURPOSES.
IDs:

KRWF - Redwood Falls Muni, MN, US

Issued at 1136 UTC 23 Oct 2017
Updated at 1717 UTC 23 Oct 2017
Potential Impact None Slight Moderate High
Time<<24/06Z 24/07Z 24/08Z 24/09Z 24/10Z 24/11Z 24/12Z 24/13Z 24/14Z 24/15Z 24/16Z 24/17Z 24/18Z>>
Type PRVL PRVL PRVL PRVL PRVL PRVL
VIS >6 >6 >6 >6 >6 >6
CIG 30 30 30 30 30 30
Cover BKN BKN BKN BKN BKN BKN
FltCat MVFR MVFR MVFR MVFR MVFR MVFR
WX -- -- -- -- -- --
WDir 340 340 340 340 340 340
WSpd 30 30 30 30 30 30
WGst 40 40 40 40 40 40

Raw TAF
KRWF 231136Z 2312/2412 28014G23KT P6SM SCT120
  FM231800 31020G29KT P6SM OVC080
  FM240000 32014G22KT P6SM SCT120
  FM240500 34030G40KT P6SM BKN030


METAR Board
Radar Display
Forecast Discussion

FOR SITUATIONAL AWARENESS. NOT TO BE USED FOR FLIGHT PLANNING PURPOSES.